Time;durP1;ratioP1;P1;durP2;ratioP2;P2;SDS_P1;SDS_P2;PMS_P1;PMS_P2;Temp;Humidity;BMP_temperature;BMP_pressure;BME280_temperature;BME280_humidity;BME280_pressure;Samples;Min_cycle;Max_cycle;Signal;HPM_P1;HPM_P2
2021/07/04 00:01:16;;;;;;;17.92;11.00;;;19.30;99.90;;;;;;5078129;28;20555;-65
2021/07/04 00:03:43;;;;;;;17.08;12.57;;;19.30;99.90;;;;;;5082066;28;20076;-65
2021/07/04 00:06:10;;;;;;;19.88;11.85;;;19.30;99.90;;;;;;5081326;28;20097;-65
2021/07/04 00:08:37;;;;;;;18.58;12.32;;;19.20;99.90;;;;;;5081065;28;20055;-65
2021/07/04 00:11:08;;;;;;;20.58;13.77;;;19.10;99.90;;;;;;5083078;28;20584;-65
2021/07/04 00:13:35;;;;;;;18.33;12.13;;;19.10;99.90;;;;;;5081916;28;20051;-66
2021/07/04 00:16:03;;;;;;;19.38;12.98;;;19.00;99.90;;;;;;5078984;28;20076;-65
2021/07/04 00:18:33;;;;;;;22.48;16.10;;;19.00;99.90;;;;;;5078816;28;20591;-65
2021/07/04 00:21:03;;;;;;;21.55;15.20;;;19.00;99.90;;;;;;5081141;28;20044;-65
2021/07/04 00:23:30;;;;;;;22.27;15.77;;;18.90;99.90;;;;;;5077025;28;20120;-66
2021/07/04 00:25:58;;;;;;;20.80;15.00;;;18.70;99.90;;;;;;5074847;28;20143;-66
2021/07/04 00:28:25;;;;;;;20.38;14.63;;;18.50;99.90;;;;;;5076595;28;20047;-65
2021/07/04 00:30:53;;;;;;;22.23;15.15;;;18.50;99.90;;;;;;5077572;28;20048;-66
2021/07/04 00:33:21;;;;;;;21.88;14.82;;;18.50;99.90;;;;;;5076614;28;20497;-65
2021/07/04 00:35:49;;;;;;;24.00;15.52;;;18.60;99.90;;;;;;5075601;28;20052;-65
2021/07/04 00:38:16;;;;;;;20.00;13.98;;;18.50;99.90;;;;;;5077249;28;20096;-66
2021/07/04 00:40:44;;;;;;;19.95;13.85;;;18.50;99.90;;;;;;5077736;28;20461;-66
2021/07/04 00:43:11;;;;;;;20.83;14.07;;;18.40;99.90;;;;;;5072458;28;20592;-65
2021/07/04 00:45:39;;;;;;;22.75;14.63;;;18.50;99.90;;;;;;5078660;28;20119;-65
2021/07/04 00:48:06;;;;;;;19.05;13.70;;;18.40;99.90;;;;;;5079667;28;20051;-66
2021/07/04 00:50:34;;;;;;;22.38;14.60;;;18.60;99.90;;;;;;5079736;28;20051;-66
2021/07/04 00:53:04;;;;;;;20.52;14.80;;;18.50;99.90;;;;;;5080039;28;20079;-65
2021/07/04 00:55:31;;;;;;;19.23;14.18;;;18.40;99.90;;;;;;5078978;28;20091;-65
2021/07/04 00:57:58;;;;;;;23.55;15.77;;;18.30;99.90;;;;;;5079718;28;20105;-65
2021/07/04 01:00:27;;;;;;;20.23;13.52;;;18.40;99.90;;;;;;5082772;28;20064;-65
2021/07/04 01:02:54;;;;;;;21.25;14.13;;;18.50;99.90;;;;;;5078976;28;20557;-65
2021/07/04 01:05:26;;;;;;;21.65;13.25;;;18.50;99.90;;;;;;5080610;28;20048;-65
2021/07/04 01:07:53;;;;;;;21.83;14.18;;;18.60;99.90;;;;;;5078566;28;20953;-66
2021/07/04 01:10:25;;;;;;;21.08;14.23;;;18.50;99.90;;;;;;5079681;28;20075;-65
2021/07/04 01:12:54;;;;;;;20.05;14.23;;;18.50;99.90;;;;;;5077080;28;20044;-66
2021/07/04 01:15:25;;;;;;;18.02;13.50;;;18.50;99.90;;;;;;5077847;28;20039;-65
2021/07/04 01:17:53;;;;;;;20.38;13.43;;;18.40;99.90;;;;;;5079513;28;20055;-65
2021/07/04 01:20:21;;;;;;;18.23;12.77;;;18.40;99.90;;;;;;5079061;28;20139;-65
2021/07/04 01:22:55;;;;;;;19.95;13.70;;;18.40;99.90;;;;;;5077340;28;20047;-65
2021/07/04 01:25:23;;;;;;;19.38;14.35;;;18.20;99.90;;;;;;5079007;28;20050;-65
2021/07/04 01:27:50;;;;;;;21.77;14.07;;;18.10;99.90;;;;;;5079486;28;20079;-66
2021/07/04 01:30:19;;;;;;;19.90;13.45;;;18.10;99.90;;;;;;5079543;28;20128;-65
2021/07/04 01:32:46;;;;;;;21.20;14.15;;;18.10;99.90;;;;;;5081130;28;20075;-65
2021/07/04 01:35:14;;;;;;;21.25;14.52;;;18.10;99.90;;;;;;5080247;28;20048;-65
2021/07/04 01:37:41;;;;;;;21.33;13.30;;;17.90;99.90;;;;;;5077917;28;20084;-65
2021/07/04 01:40:11;;;;;;;24.40;14.10;;;17.80;99.90;;;;;;5078250;28;20587;-66
2021/07/04 01:42:40;;;;;;;22.30;13.25;;;17.80;99.90;;;;;;5079195;28;20052;-65
2021/07/04 01:45:08;;;;;;;21.90;13.68;;;17.80;99.90;;;;;;5079319;28;20412;-65
2021/07/04 01:47:38;;;;;;;18.70;13.45;;;17.80;99.90;;;;;;5080310;28;20048;-66
2021/07/04 01:50:08;;;;;;;19.70;13.40;;;17.80;99.90;;;;;;5078812;28;20035;-65
2021/07/04 01:52:36;;;;;;;22.17;14.07;;;17.90;99.90;;;;;;5079465;28;20083;-65
2021/07/04 01:55:05;;;;;;;21.25;13.80;;;17.90;99.90;;;;;;5079255;28;20058;-65
2021/07/04 01:57:34;;;;;;;23.77;13.15;;;18.00;99.90;;;;;;5079502;28;20080;-65
2021/07/04 02:00:05;;;;;;;21.95;13.60;;;17.90;99.90;;;;;;5078954;28;20055;-65
2021/07/04 02:02:33;;;;;;;19.10;11.73;;;17.80;99.90;;;;;;5076120;28;20079;-65
2021/07/04 02:05:00;;;;;;;18.75;13.57;;;17.80;99.90;;;;;;5077513;28;20055;-64
2021/07/04 02:07:27;;;;;;;17.80;12.57;;;17.80;99.90;;;;;;5077610;28;20130;-65
2021/07/04 02:09:54;;;;;;;18.20;12.75;;;17.70;99.90;;;;;;5076720;28;20097;-65
2021/07/04 02:12:21;;;;;;;19.05;12.77;;;17.70;99.90;;;;;;5077854;28;20124;-65
2021/07/04 02:14:49;;;;;;;19.60;12.65;;;17.80;99.90;;;;;;5080272;28;20130;-65
2021/07/04 02:17:16;;;;;;;18.70;12.98;;;17.80;99.90;;;;;;5076794;28;20121;-65
2021/07/04 02:19:44;;;;;;;18.05;13.23;;;17.90;99.90;;;;;;5075848;28;20131;-66
2021/07/04 02:22:12;;;;;;;20.50;12.90;;;17.90;99.90;;;;;;5076731;28;20079;-65
2021/07/04 02:24:40;;;;;;;22.85;13.15;;;17.90;99.90;;;;;;5076342;28;20394;-65
2021/07/04 02:27:08;;;;;;;18.90;12.63;;;17.90;99.90;;;;;;5079803;28;20044;-65
2021/07/04 02:29:35;;;;;;;19.95;13.55;;;17.90;99.90;;;;;;5077991;28;20113;-65
2021/07/04 02:32:04;;;;;;;17.38;12.20;;;17.90;99.90;;;;;;5079875;28;20213;-65
2021/07/04 02:34:31;;;;;;;18.65;11.93;;;17.90;99.90;;;;;;5080396;28;20094;-65
2021/07/04 02:36:58;;;;;;;17.23;12.07;;;17.90;99.90;;;;;;5078994;28;20079;-65
2021/07/04 02:39:25;;;;;;;18.90;12.80;;;17.90;99.90;;;;;;5075604;28;20055;-65
2021/07/04 02:41:52;;;;;;;19.75;13.70;;;17.90;99.90;;;;;;5078891;28;20048;-65
2021/07/04 02:44:19;;;;;;;19.75;13.15;;;17.80;99.90;;;;;;5078474;28;20043;-65
2021/07/04 02:46:46;;;;;;;23.08;12.25;;;17.70;99.90;;;;;;5076936;28;20048;-65
2021/07/04 02:49:14;;;;;;;24.90;11.82;;;17.70;99.90;;;;;;5075421;28;20146;-65
2021/07/04 02:51:41;;;;;;;21.48;12.10;;;17.70;99.90;;;;;;5077491;28;20100;-65
2021/07/04 02:54:08;;;;;;;18.38;12.02;;;17.80;99.90;;;;;;5078450;28;20059;-65
2021/07/04 02:56:35;;;;;;;19.75;12.77;;;17.80;99.90;;;;;;5077706;28;20492;-67
2021/07/04 02:59:02;;;;;;;15.75;11.35;;;17.80;99.90;;;;;;5077427;28;20047;-65
2021/07/04 03:01:29;;;;;;;17.40;11.48;;;17.80;99.90;;;;;;5080071;28;20051;-65
2021/07/04 03:03:56;;;;;;;17.65;12.05;;;17.70;99.90;;;;;;5078560;28;20540;-65
2021/07/04 03:06:24;;;;;;;19.42;11.88;;;17.80;99.90;;;;;;5078483;28;20086;-65
2021/07/04 03:08:51;;;;;;;16.98;10.93;;;17.80;99.90;;;;;;5081443;28;20090;-64
2021/07/04 03:11:18;;;;;;;18.45;11.40;;;17.80;99.90;;;;;;5083157;28;20129;-65
2021/07/04 03:13:45;;;;;;;21.63;11.77;;;17.80;99.90;;;;;;5082421;28;20485;-65
2021/07/04 03:16:12;;;;;;;17.83;10.93;;;17.90;99.90;;;;;;5082771;28;20074;-65
2021/07/04 03:18:39;;;;;;;19.55;12.15;;;17.90;99.90;;;;;;5079707;28;20074;-65
2021/07/04 03:21:06;;;;;;;17.38;10.95;;;17.90;99.90;;;;;;5081595;28;20059;-65
2021/07/04 03:23:34;;;;;;;17.35;11.07;;;17.90;99.90;;;;;;5083125;28;20059;-65
2021/07/04 03:26:01;;;;;;;16.15;10.55;;;18.00;99.90;;;;;;5080742;28;20152;-65
2021/07/04 03:28:28;;;;;;;19.50;10.80;;;18.00;99.90;;;;;;5080636;28;20162;-65
2021/07/04 03:30:55;;;;;;;17.95;11.35;;;17.90;99.90;;;;;;5079684;28;20040;-65
2021/07/04 03:33:22;;;;;;;15.77;10.70;;;17.90;99.90;;;;;;5080931;28;20144;-66
2021/07/04 03:35:49;;;;;;;15.65;10.65;;;17.80;99.90;;;;;;5079199;28;20044;-65
2021/07/04 03:38:17;;;;;;;18.73;11.65;;;17.90;99.90;;;;;;5081461;28;20080;-65
2021/07/04 03:40:45;;;;;;;15.27;10.73;;;18.00;99.90;;;;;;5080268;28;20054;-65
2021/07/04 03:43:12;;;;;;;18.95;10.75;;;18.00;99.90;;;;;;5081867;28;20557;-65
2021/07/04 03:45:39;;;;;;;18.05;10.65;;;18.00;99.90;;;;;;5078571;28;20536;-65
2021/07/04 03:48:07;;;;;;;15.95;9.82;;;17.90;99.90;;;;;;5077779;28;20051;-65
2021/07/04 03:50:34;;;;;;;14.35;10.48;;;17.90;99.90;;;;;;5079713;28;20075;-65
2021/07/04 03:53:02;;;;;;;16.77;10.68;;;17.90;99.90;;;;;;5081227;28;20048;-64
2021/07/04 03:55:30;;;;;;;14.98;10.27;;;17.90;99.90;;;;;;5080431;28;20523;-65
2021/07/04 03:57:58;;;;;;;19.23;11.43;;;17.90;99.90;;;;;;5079474;28;20052;-65
2021/07/04 04:00:25;;;;;;;14.77;10.10;;;18.00;99.90;;;;;;5079224;28;20039;-65
2021/07/04 04:02:53;;;;;;;15.52;10.18;;;18.00;99.90;;;;;;5082573;28;20048;-65
2021/07/04 04:05:20;;;;;;;17.05;10.75;;;18.00;99.90;;;;;;5082133;28;20086;-65
2021/07/04 04:07:46;;;;;;;16.10;10.90;;;18.00;99.90;;;;;;5080306;28;20127;-66
2021/07/04 04:10:14;;;;;;;17.65;10.27;;;18.00;99.90;;;;;;5081098;28;20052;-65
2021/07/04 04:12:42;;;;;;;15.07;10.20;;;18.00;99.90;;;;;;5078424;28;20508;-65
2021/07/04 04:15:13;;;;;;;16.10;10.27;;;18.00;99.90;;;;;;5079558;28;20187;-66
2021/07/04 04:17:40;;;;;;;19.80;10.23;;;18.00;99.90;;;;;;5079178;28;20048;-66
2021/07/04 04:20:08;;;;;;;16.73;10.85;;;18.00;99.90;;;;;;5078573;28;20135;-65
2021/07/04 04:22:36;;;;;;;15.18;10.40;;;18.00;99.90;;;;;;5080433;28;20117;-65
2021/07/04 04:25:04;;;;;;;18.00;10.85;;;18.00;99.90;;;;;;5081664;28;20206;-65
2021/07/04 04:27:31;;;;;;;18.17;11.00;;;18.00;99.90;;;;;;5082771;28;20047;-65
2021/07/04 04:29:58;;;;;;;16.90;11.38;;;17.90;99.90;;;;;;5085377;28;20105;-66
2021/07/04 04:32:26;;;;;;;17.13;11.07;;;17.90;99.90;;;;;;5082600;28;20934;-65
2021/07/04 04:34:53;;;;;;;17.45;11.07;;;17.90;99.90;;;;;;5083415;28;20055;-65
2021/07/04 04:37:20;;;;;;;17.48;10.40;;;18.00;99.90;;;;;;5084007;28;20406;-65
2021/07/04 04:39:47;;;;;;;17.20;10.48;;;18.00;99.90;;;;;;5084431;28;20513;-65
2021/07/04 04:42:14;;;;;;;15.75;10.30;;;18.00;99.90;;;;;;5082671;28;20083;-65
2021/07/04 04:44:41;;;;;;;22.27;11.15;;;18.00;99.90;;;;;;5086067;28;20086;-65
2021/07/04 04:47:08;;;;;;;16.20;10.65;;;18.10;99.90;;;;;;5083475;28;20048;-65
2021/07/04 04:49:37;;;;;;;18.05;10.68;;;18.10;99.90;;;;;;5081104;28;20090;-65
2021/07/04 04:52:05;;;;;;;17.05;9.85;;;18.20;99.90;;;;;;5079848;28;20456;-65
2021/07/04 04:54:32;;;;;;;19.55;10.90;;;18.20;99.90;;;;;;5081981;28;20132;-66
2021/07/04 04:57:05;;;;;;;15.25;10.88;;;18.30;99.90;;;;;;5083437;28;20071;-65
2021/07/04 04:59:33;;;;;;;18.88;10.85;;;18.30;99.90;;;;;;5083285;28;20437;-65
2021/07/04 05:02:00;;;;;;;17.70;10.63;;;18.30;99.90;;;;;;5084768;28;20044;-65
2021/07/04 05:04:27;;;;;;;15.95;10.75;;;18.30;99.90;;;;;;5084798;28;20052;-65
2021/07/04 05:06:56;;;;;;;15.02;10.32;;;18.40;99.90;;;;;;5083559;28;20074;-65
2021/07/04 05:09:23;;;;;;;16.45;10.18;;;18.50;99.90;;;;;;5079512;28;20463;-65
2021/07/04 05:11:50;;;;;;;15.73;10.80;;;18.50;99.90;;;;;;5084429;28;20454;-65
2021/07/04 05:14:17;;;;;;;16.02;10.65;;;18.70;99.90;;;;;;5081987;28;20756;-65
2021/07/04 05:16:44;;;;;;;15.48;10.00;;;18.70;99.90;;;;;;5082899;28;20097;-65
2021/07/04 05:19:12;;;;;;;17.30;9.50;;;18.80;99.90;;;;;;5080625;28;20051;-65
2021/07/04 05:21:40;;;;;;;15.52;9.88;;;18.90;99.90;;;;;;5082137;28;20105;-66
2021/07/04 05:24:10;;;;;;;16.50;10.35;;;18.90;99.90;;;;;;5082702;28;20130;-65
2021/07/04 05:26:38;;;;;;;16.33;10.63;;;19.00;99.90;;;;;;5083089;28;20059;-66
2021/07/04 05:29:05;;;;;;;15.55;8.90;;;19.10;99.90;;;;;;5083106;28;20131;-65
2021/07/04 05:31:32;;;;;;;16.65;10.40;;;19.10;99.90;;;;;;5082579;28;20128;-65
2021/07/04 05:33:59;;;;;;;15.25;9.88;;;19.10;99.90;;;;;;5080803;28;20131;-65
2021/07/04 05:36:26;;;;;;;17.00;9.98;;;19.10;99.90;;;;;;5083813;28;20450;-65
2021/07/04 05:38:54;;;;;;;18.98;10.25;;;19.10;99.90;;;;;;5082963;28;20385;-65
2021/07/04 05:41:22;;;;;;;15.10;10.48;;;19.10;99.90;;;;;;5081353;28;20097;-65
2021/07/04 05:43:50;;;;;;;16.90;10.90;;;19.10;99.90;;;;;;5082027;28;20231;-66
2021/07/04 05:46:17;;;;;;;16.08;9.63;;;19.20;99.90;;;;;;5082931;28;20075;-66
2021/07/04 05:48:46;;;;;;;16.45;9.45;;;19.20;99.90;;;;;;5081088;28;20075;-65
2021/07/04 05:51:13;;;;;;;18.77;10.48;;;19.30;99.90;;;;;;5080345;28;20052;-66
2021/07/04 05:53:40;;;;;;;20.58;10.45;;;19.40;99.90;;;;;;5081451;28;20154;-65
2021/07/04 05:56:07;;;;;;;14.98;10.20;;;19.20;99.90;;;;;;5080304;28;20139;-65
2021/07/04 05:58:36;;;;;;;13.98;9.75;;;19.20;99.90;;;;;;5079150;28;20044;-65
2021/07/04 06:01:03;;;;;;;16.25;10.88;;;19.20;99.90;;;;;;5083110;28;20055;-65
2021/07/04 06:03:32;;;;;;;17.05;10.50;;;19.20;99.90;;;;;;5084337;28;20051;-65
2021/07/04 06:05:59;;;;;;;16.58;10.60;;;19.20;99.90;;;;;;5081185;28;20052;-65
2021/07/04 06:08:25;;;;;;;15.55;11.07;;;19.30;99.90;;;;;;5082166;28;20146;-65
2021/07/04 06:10:52;;;;;;;15.60;10.73;;;19.20;99.90;;;;;;5083317;28;20111;-65
2021/07/04 06:13:19;;;;;;;18.17;11.13;;;19.20;99.90;;;;;;5083989;28;20139;-65
2021/07/04 06:15:48;;;;;;;17.20;11.13;;;19.30;99.90;;;;;;5080831;28;20079;-65
2021/07/04 06:18:15;;;;;;;14.38;10.73;;;19.20;99.90;;;;;;5078560;28;20047;-66
2021/07/04 06:20:42;;;;;;;16.63;10.57;;;19.30;99.90;;;;;;5080875;28;20146;-65
2021/07/04 06:23:09;;;;;;;16.63;11.32;;;19.30;99.90;;;;;;5080743;28;20089;-66
2021/07/04 06:25:36;;;;;;;18.48;11.02;;;19.40;99.90;;;;;;5078210;28;20051;-65
2021/07/04 06:28:03;;;;;;;15.57;11.32;;;19.50;99.90;;;;;;5077860;28;20097;-66
2021/07/04 06:30:30;;;;;;;15.27;10.20;;;19.50;99.90;;;;;;5076037;28;20442;-65
2021/07/04 06:32:59;;;;;;;12.95;9.40;;;19.80;99.90;;;;;;5079549;28;20039;-65
2021/07/04 06:35:27;;;;;;;18.00;10.55;;;19.90;99.90;;;;;;5081615;28;20513;-65
2021/07/04 06:37:54;;;;;;;15.27;10.35;;;20.00;99.90;;;;;;5079079;28;20091;-65
2021/07/04 06:40:21;;;;;;;17.00;10.90;;;20.10;99.90;;;;;;5080512;28;20197;-65
2021/07/04 06:42:48;;;;;;;14.32;9.82;;;20.20;99.90;;;;;;5082499;28;20051;-66
2021/07/04 06:45:16;;;;;;;16.63;10.27;;;20.40;99.90;;;;;;5085166;28;20079;-65
2021/07/04 06:47:46;;;;;;;15.38;10.07;;;20.60;99.90;;;;;;5085144;28;20144;-65
2021/07/04 06:50:16;;;;;;;14.73;9.27;;;20.70;99.90;;;;;;5083084;28;20090;-66
2021/07/04 06:52:43;;;;;;;13.52;9.27;;;20.90;99.90;;;;;;5084048;28;21145;-65
2021/07/04 06:55:11;;;;;;;15.35;8.63;;;21.30;99.90;;;;;;5087656;28;20428;-65
2021/07/04 06:57:38;;;;;;;14.32;8.95;;;21.50;99.90;;;;;;5084153;28;20424;-65
2021/07/04 07:00:08;;;;;;;12.82;8.00;;;21.70;99.90;;;;;;5084001;28;20054;-66
2021/07/04 07:02:36;;;;;;;13.88;8.68;;;22.00;99.90;;;;;;5085106;28;20098;-66
2021/07/04 07:05:03;;;;;;;14.65;8.85;;;22.00;99.90;;;;;;5085135;28;20138;-66
2021/07/04 07:07:32;;;;;;;14.88;8.57;;;22.00;99.90;;;;;;5082106;28;21817;-65
2021/07/04 07:09:59;;;;;;;12.65;8.35;;;22.00;99.90;;;;;;5081413;28;20044;-65
2021/07/04 07:12:26;;;;;;;13.52;9.10;;;22.10;99.90;;;;;;5085736;28;20083;-65
2021/07/04 07:14:53;;;;;;;13.15;8.88;;;22.20;99.90;;;;;;5084674;28;20450;-65
2021/07/04 07:17:20;;;;;;;12.02;7.90;;;22.30;99.90;;;;;;5084101;28;20048;-65
2021/07/04 07:19:47;;;;;;;14.88;9.05;;;22.50;99.90;;;;;;5083432;28;20454;-66
2021/07/04 07:22:14;;;;;;;11.75;7.78;;;22.60;99.90;;;;;;5083384;28;20051;-66
2021/07/04 07:24:42;;;;;;;11.32;7.65;;;22.70;99.90;;;;;;5081077;28;20048;-66
2021/07/04 07:27:09;;;;;;;10.55;7.47;;;22.80;99.90;;;;;;5078829;28;20108;-66
2021/07/04 07:29:36;;;;;;;12.95;8.13;;;23.20;99.90;;;;;;5081133;28;20052;-66
2021/07/04 07:32:04;;;;;;;12.23;8.40;;;23.30;99.90;;;;;;5081418;28;20073;-66
2021/07/04 07:34:31;;;;;;;11.50;7.60;;;23.50;99.90;;;;;;5082752;28;20061;-65
2021/07/04 07:36:58;;;;;;;11.65;8.00;;;24.00;99.90;;;;;;5080953;28;20465;-66
2021/07/04 07:39:25;;;;;;;12.32;7.35;;;24.10;99.90;;;;;;5084210;28;20457;-65
2021/07/04 07:41:53;;;;;;;13.32;8.32;;;24.20;99.90;;;;;;5087177;28;20070;-66
2021/07/04 07:44:20;;;;;;;10.73;7.65;;;24.60;99.90;;;;;;5086001;28;20172;-66
2021/07/04 07:46:48;;;;;;;12.05;7.43;;;24.80;99.90;;;;;;5085868;28;20079;-66
2021/07/04 07:49:16;;;;;;;11.38;8.05;;;25.00;99.90;;;;;;5086005;28;20412;-66
2021/07/04 07:51:48;;;;;;;12.05;7.93;;;25.10;99.90;;;;;;5087143;28;20072;-66
2021/07/04 07:54:16;;;;;;;13.00;8.07;;;25.20;99.90;;;;;;5088092;28;20496;-65
2021/07/04 07:56:43;;;;;;;11.73;7.70;;;24.60;99.90;;;;;;5087134;28;20040;-66
2021/07/04 07:59:11;;;;;;;13.27;8.00;;;24.60;99.90;;;;;;5087956;28;20092;-66
2021/07/04 08:01:39;;;;;;;11.18;8.23;;;24.60;99.90;;;;;;5088189;28;20052;-66
2021/07/04 08:04:06;;;;;;;12.43;8.13;;;24.50;99.90;;;;;;5085606;28;20152;-66
2021/07/04 08:06:33;;;;;;;11.98;8.27;;;24.60;99.90;;;;;;5087578;28;20040;-66
2021/07/04 08:09:00;;;;;;;12.32;7.90;;;24.80;99.90;;;;;;5085511;28;20105;-66
2021/07/04 08:11:27;;;;;;;12.30;7.55;;;25.00;99.90;;;;;;5086520;28;20071;-66
2021/07/04 08:13:54;;;;;;;13.80;7.45;;;25.20;99.90;;;;;;5085898;28;20044;-65
2021/07/04 08:16:23;;;;;;;11.45;8.23;;;25.40;99.90;;;;;;5085289;28;20516;-66
2021/07/04 08:18:49;;;;;;;10.73;7.60;;;25.30;99.90;;;;;;5084901;28;20047;-66
2021/07/04 08:21:16;;;;;;;9.93;7.75;;;25.20;99.90;;;;;;5087914;28;20097;-66
2021/07/04 08:23:43;;;;;;;11.82;7.93;;;25.10;99.90;;;;;;5085994;28;20503;-66
2021/07/04 08:26:10;;;;;;;11.75;7.38;;;25.10;99.90;;;;;;5086436;28;20211;-66
2021/07/04 08:28:37;;;;;;;11.43;8.30;;;25.30;99.90;;;;;;5085610;28;20079;-68
2021/07/04 08:31:05;;;;;;;10.70;7.35;;;25.40;99.90;;;;;;5085966;28;20091;-66
2021/07/04 08:33:33;;;;;;;12.20;8.00;;;25.20;99.90;;;;;;5086766;28;20134;-66
2021/07/04 08:36:00;;;;;;;10.15;7.60;;;25.50;99.90;;;;;;5087121;28;20097;-66
2021/07/04 08:38:27;;;;;;;11.95;7.50;;;25.50;99.90;;;;;;5083651;28;20120;-66
2021/07/04 08:40:54;;;;;;;10.98;7.60;;;25.70;99.90;;;;;;5082625;28;20565;-66
2021/07/04 08:43:28;;;;;;;10.02;7.50;;;25.50;99.90;;;;;;5084560;28;20390;-66
2021/07/04 08:45:56;;;;;;;10.00;7.38;;;25.30;99.90;;;;;;5087432;28;20051;-66
2021/07/04 08:48:23;;;;;;;12.30;7.72;;;25.60;99.90;;;;;;5086465;28;20047;-66
2021/07/04 08:50:52;;;;;;;13.68;8.18;;;25.70;99.90;;;;;;5083427;28;20048;-66
2021/07/04 08:53:19;;;;;;;11.25;7.35;;;26.10;99.90;;;;;;5084065;28;20914;-66
2021/07/04 08:55:47;;;;;;;11.30;8.00;;;26.20;99.90;;;;;;5084229;28;20093;-66
2021/07/04 08:58:20;;;;;;;9.85;7.00;;;26.00;99.90;;;;;;5082253;28;20047;-66
2021/07/04 09:01:25;;;;;;;10.18;7.15;;;26.70;99.90;;;;;;5084496;28;20413;-66
2021/07/04 09:03:55;;;;;;;14.90;7.93;;;27.50;99.90;;;;;;5080278;28;20052;-66
2021/07/04 09:06:40;;;;;;;9.93;7.13;;;27.60;99.90;;;;;;5080407;28;20093;-66
2021/07/04 09:09:15;;;;;;;9.68;7.25;;;27.40;99.90;;;;;;5079993;28;20097;-66
2021/07/04 09:11:52;;;;;;;10.15;7.88;;;27.20;99.90;;;;;;5083004;28;20144;-66
2021/07/04 09:14:26;;;;;;;12.65;8.07;;;27.00;99.90;;;;;;5085971;28;20093;-66
2021/07/04 09:16:54;;;;;;;9.60;7.63;;;27.60;99.90;;;;;;5081229;28;20113;-67
2021/07/04 09:19:21;;;;;;;11.57;7.45;;;27.60;99.90;;;;;;5082260;28;20060;-67
2021/07/04 09:22:02;;;;;;;13.45;7.43;;;28.30;99.90;;;;;;5082299;28;20044;-66
2021/07/04 09:24:31;;;;;;;12.18;8.02;;;28.40;99.90;;;;;;5083918;28;20110;-67
2021/07/04 09:26:58;;;;;;;11.18;8.15;;;27.50;99.90;;;;;;5082315;28;20051;-66
2021/07/04 09:29:55;;;;;;;9.18;6.65;;;27.70;99.90;;;;;;5080714;28;20051;-67
2021/07/04 09:32:24;;;;;;;9.52;6.95;;;28.40;99.90;;;;;;5039908;28;20052;-67
2021/07/04 09:35:01;;;;;;;9.40;6.30;;;29.20;99.90;;;;;;5069179;28;20534;-67
2021/07/04 09:37:32;;;;;;;9.23;6.15;;;28.90;99.90;;;;;;5082418;28;20113;-67
2021/07/04 09:40:15;;;;;;;10.55;7.03;;;28.40;99.90;;;;;;5080311;28;20051;-67
2021/07/04 09:43:06;;;;;;;8.95;6.38;;;28.60;99.90;;;;;;5082176;28;20047;-67
2021/07/04 09:45:51;;;;;;;9.38;7.18;;;29.10;99.90;;;;;;5082303;28;20059;-66
2021/07/04 09:48:20;;;;;;;9.50;6.85;;;29.00;99.90;;;;;;5080408;28;20496;-67
2021/07/04 09:50:50;;;;;;;9.02;6.97;;;28.70;99.90;;;;;;5078898;28;20056;-67
2021/07/04 09:53:19;;;;;;;12.32;7.80;;;28.20;99.90;;;;;;5080340;28;20430;-67
2021/07/04 09:55:50;;;;;;;10.85;7.70;;;27.30;99.90;;;;;;5082037;28;20145;-66
2021/07/04 09:58:17;;;;;;;10.38;7.63;;;26.80;99.90;;;;;;5078892;28;20517;-66
2021/07/04 10:00:46;;;;;;;12.48;7.43;;;26.70;99.90;;;;;;5079478;28;20055;-66
2021/07/04 10:03:16;;;;;;;9.90;7.28;;;26.70;99.90;;;;;;5078408;28;20048;-66
2021/07/04 10:05:45;;;;;;;9.52;7.60;;;26.80;99.90;;;;;;5081009;28;20047;-67
2021/07/04 10:08:22;;;;;;;12.27;7.15;;;27.50;99.90;;;;;;5078739;28;20058;-67
2021/07/04 10:10:49;;;;;;;;;;;28.00;99.90;;;;;;5079730;28;20529;-66
2021/07/04 10:13:16;;;;;;;11.45;6.82;;;27.80;99.90;;;;;;5077971;28;19958;-66
2021/07/04 10:15:44;;;;;;;12.55;6.18;;;28.20;99.90;;;;;;5079652;28;20150;-66
2021/07/04 10:18:13;;;;;;;8.45;6.68;;;28.40;99.90;;;;;;5076604;28;20055;-66
2021/07/04 10:20:40;;;;;;;12.45;7.78;;;28.20;99.90;;;;;;5076943;28;20048;-67
2021/07/04 10:23:09;;;;;;;8.95;6.43;;;27.60;99.90;;;;;;5081437;28;20064;-67
2021/07/04 10:25:37;;;;;;;10.57;7.20;;;27.90;99.90;;;;;;5080952;28;20079;-67
2021/07/04 10:28:05;;;;;;;9.20;6.57;;;27.80;99.90;;;;;;5081013;28;20129;-66
2021/07/04 10:30:33;;;;;;;10.05;6.68;;;27.70;99.90;;;;;;5082380;28;20044;-66
2021/07/04 10:33:13;;;;;;;9.07;6.72;;;27.90;99.90;;;;;;5081195;28;20568;-66
2021/07/04 10:36:04;;;;;;;15.93;8.15;;;27.80;99.90;;;;;;5079487;28;20048;-67
2021/07/04 10:38:46;;;;;;;10.70;7.00;;;27.50;99.90;;;;;;5079234;28;20497;-66
2021/07/04 10:41:17;;;;;;;10.02;6.60;;;27.40;99.90;;;;;;5082452;28;20521;-66
2021/07/04 10:43:56;;;;;;;8.52;6.63;;;27.20;99.90;;;;;;5084092;28;20050;-67
2021/07/04 10:47:15;;;;;;;8.55;6.47;;;27.60;99.90;;;;;;5080221;28;20122;-66
2021/07/04 10:49:46;;;;;;;9.40;6.40;;;27.70;99.90;;;;;;5080466;28;20059;-67
2021/07/04 10:52:23;;;;;;;9.27;5.60;;;28.20;99.90;;;;;;5081774;28;20045;-68
2021/07/04 10:54:53;;;;;;;8.13;6.05;;;29.20;99.90;;;;;;5081737;28;20569;-68
2021/07/04 10:57:29;;;;;;;9.65;6.20;;;28.40;99.90;;;;;;5081533;28;20420;-68
2021/07/04 11:00:17;;;;;;;8.43;6.00;;;28.50;99.90;;;;;;5076942;28;20056;-68
2021/07/04 11:02:46;;;;;;;9.23;5.88;;;28.90;99.90;;;;;;5077872;28;20051;-65
2021/07/04 11:05:14;;;;;;;8.93;5.95;;;29.30;99.90;;;;;;5077129;28;20412;-65
2021/07/04 11:08:09;;;;;;;8.32;5.50;;;29.20;99.90;;;;;;5077916;28;20594;-68
2021/07/04 11:10:38;;;;;;;7.72;5.45;;;29.20;99.90;;;;;;5079258;28;20195;-68
2021/07/04 11:13:35;;;;;;;7.03;5.18;;;29.40;99.90;;;;;;5078011;28;20496;-67
2021/07/04 11:16:13;;;;;;;6.75;4.93;;;29.20;99.90;;;;;;5079333;28;20458;-67
2021/07/04 11:18:43;;;;;;;7.55;4.88;;;28.80;99.90;;;;;;5077294;28;20083;-67
2021/07/04 11:21:11;;;;;;;6.40;4.43;;;28.60;99.90;;;;;;5078476;28;20140;-67
2021/07/04 11:23:38;;;;;;;6.93;4.70;;;28.70;99.90;;;;;;5079109;28;20101;-67
2021/07/04 11:26:17;;;;;;;6.95;4.20;;;28.40;99.90;;;;;;5077945;28;20354;-66
2021/07/04 11:28:47;;;;;;;6.18;4.35;;;28.30;99.90;;;;;;5079827;28;20078;-67
2021/07/04 11:31:28;;;;;;;8.30;4.70;;;27.90;99.90;;;;;;5087199;28;20139;-67
2021/07/04 11:33:56;;;;;;;6.60;4.35;;;27.60;99.90;;;;;;5086927;28;20043;-67
2021/07/04 11:36:27;;;;;;;8.00;4.90;;;27.60;99.90;;;;;;5084426;28;20083;-67
2021/07/04 11:38:57;;;;;;;8.07;4.70;;;27.40;99.90;;;;;;5079861;28;20127;-67
2021/07/04 11:41:26;;;;;;;6.80;4.70;;;27.20;99.90;;;;;;5083721;28;20044;-67
2021/07/04 11:43:57;;;;;;;6.72;4.25;;;27.10;99.90;;;;;;5083200;28;20044;-66
2021/07/04 11:46:25;;;;;;;7.03;4.82;;;26.90;99.90;;;;;;5083084;28;20047;-66
2021/07/04 11:49:06;;;;;;;8.00;4.68;;;26.80;99.90;;;;;;5076265;28;20126;-66
2021/07/04 11:51:44;;;;;;;6.97;4.65;;;26.90;99.90;;;;;;5080500;28;20059;-67
2021/07/04 11:54:15;;;;;;;8.77;4.85;;;27.10;99.90;;;;;;5075484;28;20108;-67
2021/07/04 11:56:44;;;;;;;6.32;4.28;;;27.10;99.90;;;;;;5075210;28;20109;-67
2021/07/04 11:59:15;;;;;;;7.72;4.70;;;27.00;99.90;;;;;;5073409;28;20458;-67
2021/07/04 12:01:48;;;;;;;7.18;4.55;;;27.00;99.90;;;;;;5079745;28;20530;-67
2021/07/04 12:04:17;;;;;;;8.02;4.70;;;26.80;99.90;;;;;;5079475;28;20502;-67
2021/07/04 12:06:55;;;;;;;7.60;4.82;;;26.80;99.90;;;;;;5078599;28;20466;-66
2021/07/04 12:09:34;;;;;;;7.22;4.10;;;26.60;99.90;;;;;;5076352;28;20132;-66
2021/07/04 12:12:01;;;;;;;6.63;4.60;;;26.50;99.90;;;;;;5077282;28;20101;-67
2021/07/04 12:14:32;;;;;;;13.25;6.78;;;26.70;99.90;;;;;;5078015;28;20276;-66
2021/07/04 12:17:19;;;;;;;9.20;6.05;;;26.80;99.90;;;;;;5082393;28;20052;-67
2021/07/04 12:19:50;;;;;;;12.25;6.20;;;27.40;99.90;;;;;;5082716;28;20110;-66
2021/07/04 12:22:23;;;;;;;8.98;5.85;;;27.60;99.90;;;;;;5082911;28;20047;-67
2021/07/04 12:24:51;;;;;;;21.35;15.85;;;27.80;99.90;;;;;;5084115;28;20047;-67
2021/07/04 12:27:19;;;;;;;10.20;4.60;;;28.30;99.90;;;;;;5083098;27;20083;-67
2021/07/04 12:30:06;;;;;;;8.20;5.10;;;28.90;99.90;;;;;;5080833;28;20050;-67
2021/07/04 12:32:39;;;;;;;8.18;5.93;;;29.00;99.90;;;;;;5085090;28;20101;-67
2021/07/04 12:35:09;;;;;;;8.05;4.53;;;29.30;99.90;;;;;;5082260;28;20101;-67
2021/07/04 12:37:36;;;;;;;6.85;4.65;;;29.90;99.90;;;;;;5079529;28;20048;-67
2021/07/04 12:40:12;;;;;;;5.45;3.90;;;29.60;99.90;;;;;;5080384;28;20047;-67
2021/07/04 12:42:39;;;;;;;6.38;4.32;;;30.20;99.90;;;;;;5081200;28;20506;-67
2021/07/04 12:45:11;;;;;;;7.93;4.57;;;31.00;99.90;;;;;;5077090;28;20080;-67